Time;durP1;ratioP1;P1;durP2;ratioP2;P2;SDS_P1;SDS_P2;PMS_P1;PMS_P2;Temp;Humidity;BMP_temperature;BMP_pressure;BME280_temperature;BME280_humidity;BME280_pressure;Samples;Min_cycle;Max_cycle;Signal;HPM_P1;HPM_P2
2022/02/06 00:00:24;;;;;;;5.05;1.42;;;7.20;99.90;;;;;;6770481;87;20197;-76
2022/02/06 00:10:24;;;;;;;4.45;1.12;;;7.20;99.90;;;;;;6764318;87;20211;-76
2022/02/06 00:20:32;;;;;;;5.35;1.10;;;7.10;99.90;;;;;;6767643;87;20349;-75
2022/02/06 00:30:41;;;;;;;4.68;1.08;;;6.90;99.90;;;;;;6769060;87;20199;-75
2022/02/06 00:50:49;;;;;;;3.08;0.95;;;7.00;99.90;;;;;;6770100;87;20259;-75
2022/02/06 01:00:50;;;;;;;2.78;0.73;;;7.10;99.90;;;;;;6768904;87;20744;-75
2022/02/06 01:10:51;;;;;;;3.30;0.80;;;7.00;99.90;;;;;;6766509;87;20203;-76
2022/02/06 01:21:01;;;;;;;2.67;0.88;;;7.00;99.90;;;;;;6764752;87;20200;-76
2022/02/06 01:31:29;;;;;;;2.85;0.80;;;7.10;99.90;;;;;;6768696;87;20168;-75
2022/02/06 01:41:25;;;;;;;4.37;1.17;;;7.00;99.90;;;;;;6768711;87;20171;-75
2022/02/06 02:22:40;;;;;;;3.33;1.10;;;7.40;99.90;;;;;;6767844;87;20231;-75
2022/02/06 03:03:08;;;;;;;5.12;1.20;;;7.90;99.90;;;;;;6775571;87;20197;-75
2022/02/06 03:13:12;;;;;;;5.80;1.20;;;7.90;99.90;;;;;;6766496;87;20355;-75
2022/02/06 03:23:14;;;;;;;6.12;1.30;;;7.90;99.90;;;;;;6766217;87;20339;-75
2022/02/06 03:33:15;;;;;;;3.62;1.10;;;7.90;99.90;;;;;;6762116;87;20694;-75
2022/02/06 03:43:19;;;;;;;5.28;1.27;;;7.90;99.90;;;;;;6765279;87;20354;-75
2022/02/06 03:53:24;;;;;;;6.00;1.17;;;7.70;99.90;;;;;;6764477;87;20972;-74
2022/02/06 04:03:24;;;;;;;4.57;1.35;;;7.40;99.90;;;;;;6767106;87;20221;-76
2022/02/06 04:13:26;;;;;;;7.53;1.45;;;7.10;99.90;;;;;;6770085;87;20181;-75
2022/02/06 04:23:27;;;;;;;4.55;1.25;;;7.10;99.90;;;;;;6767634;87;20283;-75
2022/02/06 04:33:27;;;;;;;4.47;0.90;;;7.20;99.90;;;;;;6766766;87;20199;-75
2022/02/06 04:43:57;;;;;;;2.72;0.75;;;7.20;99.90;;;;;;6766887;87;20222;-75
2022/02/06 05:14:34;;;;;;;2.28;0.50;;;7.40;99.90;;;;;;6765184;87;20204;-75
2022/02/06 05:34:44;;;;;;;3.17;0.68;;;6.90;99.90;;;;;;6771046;87;20241;-76
2022/02/06 05:44:48;;;;;;;2.08;0.70;;;6.80;99.90;;;;;;6769404;87;20932;-76
2022/02/06 05:54:49;;;;;;;2.55;0.60;;;6.80;99.90;;;;;;6769735;87;20970;-75
2022/02/06 06:04:50;;;;;;;2.62;0.80;;;7.00;99.90;;;;;;6775833;87;20187;-75
2022/02/06 06:14:50;;;;;;;2.75;0.70;;;6.90;99.90;;;;;;6769035;87;20266;-76
2022/02/06 06:24:55;;;;;;;1.65;0.50;;;7.00;99.90;;;;;;6763096;87;20394;-77
2022/02/06 06:34:57;;;;;;;2.08;0.40;;;7.00;99.90;;;;;;6769085;87;21049;-74
2022/02/06 06:44:57;;;;;;;2.75;0.70;;;7.10;99.90;;;;;;6768025;87;20191;-75
2022/02/06 06:55:03;;;;;;;2.08;0.50;;;7.00;99.90;;;;;;6767773;87;20740;-74
2022/02/06 07:05:05;;;;;;;1.00;0.40;;;7.10;99.90;;;;;;6771789;87;20236;-75
2022/02/06 07:15:05;;;;;;;1.35;0.30;;;7.20;99.90;;;;;;6765185;87;20168;-74
2022/02/06 07:25:07;;;;;;;0.95;0.40;;;7.30;99.90;;;;;;6762713;87;20298;-74
2022/02/06 07:35:09;;;;;;;1.62;0.50;;;7.30;99.90;;;;;;6759520;87;20300;-74
2022/02/06 07:45:11;;;;;;;1.35;0.32;;;7.50;99.90;;;;;;6756552;87;20197;-74
2022/02/06 07:55:12;;;;;;;1.20;0.30;;;7.70;99.90;;;;;;6757538;87;20256;-74
2022/02/06 08:05:16;;;;;;;1.25;0.20;;;7.70;99.90;;;;;;6758797;87;20199;-74
2022/02/06 08:15:17;;;;;;;1.33;0.20;;;7.80;99.90;;;;;;6765871;87;20192;-75
2022/02/06 08:25:18;;;;;;;0.73;0.20;;;7.70;99.90;;;;;;6760241;87;20683;-75
2022/02/06 08:35:18;;;;;;;0.30;0.10;;;7.70;99.90;;;;;;6765060;87;20240;-75
2022/02/06 08:45:20;;;;;;;1.30;0.40;;;7.70;99.90;;;;;;6767271;87;20651;-75
2022/02/06 08:55:21;;;;;;;0.37;0.15;;;7.80;99.90;;;;;;6768396;87;20184;-75
2022/02/06 09:05:23;;;;;;;0.52;0.10;;;7.80;99.90;;;;;;6778405;87;20176;-75
2022/02/06 09:15:24;;;;;;;0.95;0.20;;;7.90;99.90;;;;;;6766238;87;20202;-74
2022/02/06 09:25:25;;;;;;;0.70;0.10;;;8.10;99.90;;;;;;6755583;87;20187;-74
2022/02/06 09:35:25;;;;;;;0.50;0.20;;;8.10;99.90;;;;;;6760086;87;20717;-74
2022/02/06 09:45:28;;;;;;;0.60;0.20;;;8.10;99.90;;;;;;6762218;87;20223;-77
2022/02/06 09:55:29;;;;;;;0.62;0.20;;;8.20;99.90;;;;;;6761677;87;20216;-74
2022/02/06 10:05:35;;;;;;;0.50;0.20;;;8.30;99.90;;;;;;6763740;87;20219;-76
2022/02/06 10:15:36;;;;;;;0.10;0.10;;;8.40;99.90;;;;;;6767333;87;20322;-76
2022/02/06 10:25:47;;;;;;;0.10;0.10;;;8.40;99.90;;;;;;6759226;87;20180;-75
2022/02/06 10:35:54;;;;;;;0.30;0.20;;;8.40;99.90;;;;;;6763105;87;20613;-74
2022/02/06 10:46:10;;;;;;;0.10;0.10;;;8.40;99.90;;;;;;6765866;87;20195;-75
2022/02/06 10:56:10;;;;;;;2.75;0.20;;;8.40;99.90;;;;;;6764506;87;20257;-75
2022/02/06 11:17:24;;;;;;;0.55;0.20;;;8.30;99.90;;;;;;6741822;87;20187;-75
2022/02/06 11:27:27;;;;;;;0.95;0.20;;;8.20;99.90;;;;;;6760443;87;20275;-74
2022/02/06 11:47:57;;;;;;;0.57;0.20;;;7.90;99.90;;;;;;6762685;87;20612;-75
2022/02/06 11:58:31;;;;;;;0.30;0.10;;;7.50;99.90;;;;;;6764312;87;20326;-76
2022/02/06 12:08:32;;;;;;;0.52;0.20;;;7.30;99.90;;;;;;6774632;87;20188;-74
2022/02/06 12:18:37;;;;;;;2.03;0.30;;;7.20;99.90;;;;;;6764708;87;20187;-74
2022/02/06 12:28:42;;;;;;;0.10;0.10;;;7.10;99.90;;;;;;6769746;87;20981;-73
2022/02/06 12:38:44;;;;;;;0.77;0.37;;;7.20;99.90;;;;;;6763026;87;20187;-73
2022/02/06 12:48:44;;;;;;;0.40;0.20;;;7.20;99.90;;;;;;6764706;87;20188;-73
2022/02/06 12:58:48;;;;;;;0.40;0.20;;;7.40;99.90;;;;;;6762283;87;20608;-72
2022/02/06 13:08:49;;;;;;;0.43;0.20;;;7.80;99.90;;;;;;6763797;87;20282;-73
2022/02/06 13:19:20;;;;;;;0.60;0.10;;;8.20;99.90;;;;;;6765320;87;20176;-73
2022/02/06 13:29:30;;;;;;;0.50;0.20;;;8.50;99.90;;;;;;6761245;87;20226;-74
2022/02/06 13:39:36;;;;;;;1.12;0.20;;;7.90;99.90;;;;;;6766660;87;20739;-74
2022/02/06 13:49:49;;;;;;;2.40;0.25;;;7.40;99.90;;;;;;6749709;87;20183;-75
2022/02/06 13:59:49;;;;;;;1.10;0.30;;;7.20;99.90;;;;;;6765062;87;20341;-73
2022/02/06 14:10:09;;;;;;;1.98;0.43;;;7.30;99.90;;;;;;6770167;87;20243;-73
2022/02/06 14:20:12;;;;;;;2.37;0.40;;;6.70;99.90;;;;;;6767459;87;20312;-73
2022/02/06 14:30:15;;;;;;;0.57;0.30;;;6.40;99.90;;;;;;6760243;87;20615;-74
2022/02/06 14:50:49;;;;;;;1.12;0.32;;;5.90;99.90;;;;;;6758396;87;20626;-74
2022/02/06 15:06:24;;;;;;;1.23;0.40;;;5.80;99.90;;;;;;6790605;86;20319;-73
2022/02/06 15:16:28;;;;;;;5.43;0.80;;;5.70;99.90;;;;;;6762912;87;20574;-73
2022/02/06 15:26:29;;;;;;;0.80;0.30;;;5.60;99.90;;;;;;6764297;87;20191;-73
2022/02/06 15:36:31;;;;;;;1.42;0.40;;;5.40;99.90;;;;;;6775070;87;20260;-74
2022/02/06 15:46:33;;;;;;;2.08;0.45;;;5.20;99.90;;;;;;6769871;87;20209;-75
2022/02/06 15:56:34;;;;;;;0.43;0.20;;;5.00;99.90;;;;;;6768772;87;20798;-75
2022/02/06 16:06:35;;;;;;;0.55;0.30;;;4.90;99.90;;;;;;6765506;87;20689;-75
2022/02/06 16:16:35;;;;;;;1.00;0.30;;;4.80;99.90;;;;;;6759483;87;20323;-75
2022/02/06 16:26:36;;;;;;;2.35;0.40;;;4.90;99.90;;;;;;6757294;87;20615;-75
2022/02/06 16:36:37;;;;;;;0.62;0.30;;;4.90;99.90;;;;;;6755320;87;20513;-74
2022/02/06 16:46:37;;;;;;;1.05;0.30;;;4.90;99.90;;;;;;6748090;87;20225;-75
2022/02/06 16:56:38;;;;;;;1.35;0.50;;;5.00;99.90;;;;;;6759136;87;20648;-76
2022/02/06 17:06:39;;;;;;;1.92;0.50;;;5.40;99.90;;;;;;6740909;88;20694;-74
2022/02/06 17:16:40;;;;;;;1.80;0.70;;;5.70;99.90;;;;;;6736559;88;20185;-74
2022/02/06 17:26:43;;;;;;;5.05;0.70;;;5.70;99.90;;;;;;6739353;88;20204;-73
2022/02/06 17:36:43;;;;;;;4.07;1.15;;;6.00;99.90;;;;;;6742857;88;20240;-74
2022/02/06 17:46:47;;;;;;;4.70;0.80;;;5.80;99.90;;;;;;6746643;88;20706;-74
2022/02/06 17:56:48;;;;;;;6.00;0.82;;;5.90;99.90;;;;;;6741654;87;20354;-74
2022/02/06 18:06:50;;;;;;;4.07;0.73;;;5.70;99.90;;;;;;6774596;87;20234;-74
2022/02/06 18:16:51;;;;;;;2.22;0.70;;;5.70;99.90;;;;;;6752560;87;20176;-74
2022/02/06 18:26:53;;;;;;;4.10;0.70;;;5.70;99.90;;;;;;6765330;87;20191;-74
2022/02/06 18:36:54;;;;;;;1.30;0.43;;;5.80;99.90;;;;;;6759933;87;20191;-74
2022/02/06 18:46:55;;;;;;;3.80;0.80;;;6.00;99.90;;;;;;6756037;87;20227;-74
2022/02/06 18:56:58;;;;;;;3.37;0.60;;;6.00;99.90;;;;;;6759268;87;20627;-73
2022/02/06 19:06:59;;;;;;;2.35;0.65;;;5.90;99.90;;;;;;6758675;87;20194;-73
2022/02/06 19:17:00;;;;;;;1.92;0.40;;;5.60;99.90;;;;;;6761278;87;20639;-74
2022/02/06 19:27:00;;;;;;;3.55;0.68;;;5.40;99.90;;;;;;6758367;87;20637;-74
2022/02/06 19:37:01;;;;;;;2.70;0.60;;;5.10;99.90;;;;;;6758828;87;20280;-73
2022/02/06 19:47:02;;;;;;;2.90;0.62;;;4.50;99.90;;;;;;6760914;87;20994;-73
2022/02/06 19:57:03;;;;;;;2.97;0.70;;;4.00;99.90;;;;;;6753961;87;20534;-74
2022/02/06 20:07:07;;;;;;;2.90;0.57;;;4.10;99.90;;;;;;6752997;87;20680;-74
2022/02/06 20:17:07;;;;;;;1.20;0.40;;;4.10;99.90;;;;;;6754407;87;20184;-73
2022/02/06 20:27:14;;;;;;;1.50;0.50;;;4.20;99.90;;;;;;6758472;87;20323;-73
2022/02/06 20:37:16;;;;;;;5.55;0.40;;;4.20;99.90;;;;;;6762451;87;20164;-72
2022/02/06 20:47:17;;;;;;;2.10;0.55;;;4.10;99.90;;;;;;6757256;87;20191;-71
2022/02/06 20:57:17;;;;;;;2.70;0.90;;;4.20;99.90;;;;;;6759479;87;20614;-76
2022/02/06 21:07:18;;;;;;;3.90;0.75;;;4.10;99.90;;;;;;6747347;88;20218;-72
2022/02/06 21:17:18;;;;;;;3.87;1.00;;;4.00;99.90;;;;;;6741794;88;20220;-74
2022/02/06 21:27:19;;;;;;;3.80;1.15;;;4.10;99.90;;;;;;6738328;88;20223;-74
2022/02/06 21:37:20;;;;;;;4.47;1.20;;;4.10;99.90;;;;;;6747700;88;20232;-74
2022/02/06 21:47:20;;;;;;;3.12;0.70;;;4.30;99.90;;;;;;6741438;88;20209;-74
2022/02/06 21:57:21;;;;;;;2.47;0.60;;;4.30;99.90;;;;;;6740199;88;20287;-73
2022/02/06 22:07:32;;;;;;;1.92;0.47;;;4.40;99.90;;;;;;6744331;88;20261;-73
2022/02/06 22:38:12;;;;;;;2.67;0.60;;;4.50;99.90;;;;;;6738560;88;20607;-73
2022/02/06 22:48:12;;;;;;;4.82;0.70;;;4.50;99.90;;;;;;6741254;88;20185;-72
2022/02/06 22:58:13;;;;;;;3.83;0.70;;;4.40;99.90;;;;;;6746668;87;20318;-73
2022/02/06 23:08:13;;;;;;;4.03;1.05;;;4.40;99.90;;;;;;6759843;87;20179;-73
2022/02/06 23:18:14;;;;;;;6.80;0.97;;;4.40;99.90;;;;;;6753990;87;20290;-73
2022/02/06 23:28:15;;;;;;;8.55;1.02;;;4.50;99.90;;;;;;6764410;87;20503;-72
2022/02/06 23:38:17;;;;;;;7.50;0.90;;;4.40;99.90;;;;;;6764079;87;20185;-72
2022/02/06 23:48:21;;;;;;;4.93;0.82;;;4.30;99.90;;;;;;6758560;87;20226;-71
2022/02/06 23:58:28;;;;;;;6.85;0.77;;;4.30;99.90;;;;;;6761837;87;20185;-72
